createdAt,value
2022-12-23T00:00:28.791Z,100.00
2022-12-23T00:02:55.884Z,100.00
2022-12-23T00:05:22.955Z,100.00
2022-12-23T00:07:49.683Z,100.00
2022-12-23T00:10:16.514Z,100.00
2022-12-23T00:13:01.685Z,100.00
2022-12-23T00:15:28.602Z,100.00
2022-12-23T00:17:55.465Z,100.00
2022-12-23T00:20:22.536Z,100.00
2022-12-23T00:23:07.808Z,100.00
2022-12-23T00:25:41.051Z,100.00
2022-12-23T00:28:14.668Z,100.00
2022-12-23T00:30:52.429Z,100.00
2022-12-23T00:33:22.659Z,100.00
2022-12-23T00:35:50.576Z,100.00
2022-12-23T00:38:38.221Z,100.00
2022-12-23T00:41:34.838Z,100.00
2022-12-23T00:44:02.927Z,100.00
2022-12-23T00:46:29.811Z,100.00
2022-12-23T00:49:15.443Z,100.00
2022-12-23T00:51:42.185Z,100.00
2022-12-23T00:54:08.943Z,100.00
2022-12-23T00:56:35.772Z,100.00
2022-12-23T00:59:02.531Z,100.00
2022-12-23T01:01:48.119Z,100.00
2022-12-23T01:04:35.000Z,100.00
2022-12-23T01:07:02.479Z,100.00
2022-12-23T01:09:29.706Z,100.00
2022-12-23T01:11:56.427Z,100.00
2022-12-23T01:14:23.405Z,100.00
2022-12-23T01:16:50.209Z,100.00
2022-12-23T01:19:17.112Z,100.00
2022-12-23T01:21:43.928Z,100.00
2022-12-23T01:24:10.618Z,100.00
2022-12-23T01:26:37.427Z,100.00
2022-12-23T01:29:04.313Z,100.00
2022-12-23T01:31:31.183Z,100.00
2022-12-23T01:33:57.944Z,100.00
2022-12-23T01:36:24.992Z,100.00
2022-12-23T01:38:52.014Z,100.00
2022-12-23T01:41:55.540Z,100.00
2022-12-23T01:44:50.101Z,100.00
2022-12-23T01:47:25.848Z,100.00
2022-12-23T01:50:00.004Z,100.00
2022-12-23T01:52:27.464Z,100.00
2022-12-23T01:54:55.504Z,100.00
2022-12-23T01:57:22.798Z,100.00
2022-12-23T02:00:08.636Z,100.00
2022-12-23T02:02:55.698Z,100.00
2022-12-23T02:05:23.902Z,100.00
2022-12-23T02:08:11.248Z,100.00
2022-12-23T02:11:16.655Z,100.00
2022-12-23T02:14:49.147Z,100.00
2022-12-23T02:17:30.096Z,100.00
2022-12-23T02:20:44.818Z,100.00
2022-12-23T02:23:33.273Z,100.00
2022-12-23T02:26:14.954Z,100.00
2022-12-23T02:29:19.475Z,100.00
2022-12-23T02:31:49.098Z,100.00
2022-12-23T02:34:51.134Z,100.00
2022-12-23T02:37:41.614Z,100.00
2022-12-23T02:40:14.943Z,100.00
2022-12-23T02:42:54.074Z,100.00
2022-12-23T02:45:33.381Z,100.00
2022-12-23T02:48:07.805Z,100.00
2022-12-23T02:50:38.513Z,100.00
2022-12-23T02:53:21.963Z,100.00
2022-12-23T02:55:52.169Z,100.00
2022-12-23T02:58:26.531Z,100.00
2022-12-23T03:00:54.616Z,100.00
2022-12-23T03:03:22.460Z,100.00
2022-12-23T03:05:51.387Z,100.00
2022-12-23T03:08:29.581Z,100.00
2022-12-23T03:11:06.356Z,100.00
2022-12-23T03:13:57.354Z,100.00
2022-12-23T03:16:46.716Z,100.00
2022-12-23T03:19:32.841Z,100.00
2022-12-23T03:22:06.140Z,100.00
2022-12-23T03:24:44.711Z,100.00
2022-12-23T03:27:37.386Z,100.00
2022-12-23T03:30:08.627Z,100.00
2022-12-23T03:32:46.431Z,100.00
2022-12-23T03:35:20.445Z,100.00
2022-12-23T03:37:50.647Z,100.00
2022-12-23T03:40:23.999Z,100.00
2022-12-23T03:42:59.004Z,100.00
2022-12-23T03:45:40.352Z,100.00
2022-12-23T03:48:24.079Z,100.00
2022-12-23T03:50:56.335Z,100.00
2022-12-23T03:53:49.423Z,100.00
2022-12-23T03:56:40.595Z,100.00
2022-12-23T03:59:27.194Z,100.00
2022-12-23T04:01:56.745Z,100.00
2022-12-23T04:04:29.683Z,100.00
2022-12-23T04:07:16.136Z,100.00
2022-12-23T04:09:43.598Z,100.00
2022-12-23T04:12:10.711Z,100.00
2022-12-23T04:14:38.569Z,100.00
2022-12-23T04:17:05.435Z,100.00
2022-12-23T04:19:33.512Z,100.00
2022-12-23T04:22:00.425Z,100.00
2022-12-23T04:24:27.187Z,100.00
2022-12-23T04:26:53.930Z,100.00
2022-12-23T04:29:20.883Z,100.00
2022-12-23T04:31:47.606Z,100.00
2022-12-23T04:34:14.495Z,100.00
2022-12-23T04:36:41.235Z,100.00
2022-12-23T04:39:07.934Z,100.00
2022-12-23T04:41:34.789Z,100.00
2022-12-23T04:44:01.688Z,100.00
2022-12-23T04:46:28.335Z,100.00
2022-12-23T04:48:55.154Z,100.00
2022-12-23T04:51:22.099Z,100.00
2022-12-23T04:53:48.919Z,100.00
2022-12-23T04:56:15.605Z,100.00
2022-12-23T04:58:42.606Z,100.00
2022-12-23T05:01:11.011Z,100.00
2022-12-23T05:03:38.585Z,100.00
2022-12-23T05:06:06.233Z,100.00
2022-12-23T05:08:33.278Z,100.00
2022-12-23T05:11:00.047Z,100.00
2022-12-23T05:13:26.865Z,100.00
2022-12-23T05:15:55.106Z,100.00
2022-12-23T05:18:22.905Z,100.00
2022-12-23T05:20:50.407Z,100.00
2022-12-23T05:23:17.454Z,100.00
2022-12-23T05:25:44.344Z,100.00
2022-12-23T05:28:11.329Z,100.00
2022-12-23T05:30:38.144Z,100.00
2022-12-23T05:33:05.048Z,100.00
2022-12-23T05:35:31.852Z,100.00
2022-12-23T05:37:58.545Z,100.00
2022-12-23T05:40:28.750Z,100.00
2022-12-23T05:42:57.920Z,100.00
2022-12-23T05:45:24.647Z,100.00
2022-12-23T05:47:51.304Z,100.00
2022-12-23T05:50:18.873Z,100.00
2022-12-23T05:52:45.789Z,100.00
2022-12-23T05:55:12.696Z,100.00
2022-12-23T05:57:39.467Z,100.00
2022-12-23T06:00:06.882Z,100.00
2022-12-23T06:02:33.757Z,100.00
2022-12-23T06:05:00.662Z,100.00
2022-12-23T06:07:27.330Z,100.00
2022-12-23T06:09:53.979Z,100.00
2022-12-23T06:12:21.061Z,100.00
2022-12-23T06:14:47.966Z,100.00
2022-12-23T06:17:14.832Z,100.00
2022-12-23T06:19:41.711Z,100.00
2022-12-23T06:22:08.562Z,99.66
2022-12-23T06:24:35.551Z,100.00
2022-12-23T06:27:02.849Z,100.00
2022-12-23T06:29:29.915Z,100.00
2022-12-23T06:31:56.845Z,99.91
2022-12-23T06:34:23.991Z,100.00
2022-12-23T06:36:50.844Z,99.13
2022-12-23T06:39:17.687Z,99.90
2022-12-23T06:41:44.883Z,99.71
2022-12-23T06:44:11.867Z,99.64
2022-12-23T06:46:38.644Z,99.47
2022-12-23T06:49:12.618Z,99.68
2022-12-23T06:51:43.455Z,99.86
2022-12-23T06:54:12.182Z,99.78
2022-12-23T06:56:39.838Z,100.00
2022-12-23T06:59:06.660Z,99.36
2022-12-23T07:01:34.093Z,99.11
2022-12-23T07:04:02.041Z,99.15
2022-12-23T07:06:29.221Z,99.50
2022-12-23T07:08:56.034Z,99.82
2022-12-23T07:11:22.925Z,99.75
2022-12-23T07:13:49.803Z,99.60
2022-12-23T07:16:16.602Z,100.00
2022-12-23T07:18:43.526Z,99.71
2022-12-23T07:21:18.819Z,99.80
2022-12-23T07:23:48.205Z,100.00
2022-12-23T07:26:14.994Z,99.73
2022-12-23T07:28:44.193Z,99.38
2022-12-23T07:31:10.972Z,99.82
2022-12-23T07:33:37.643Z,100.00
2022-12-23T07:36:04.607Z,100.00
2022-12-23T07:38:31.562Z,100.00
2022-12-23T07:40:58.333Z,100.00
2022-12-23T07:43:25.407Z,100.00
2022-12-23T07:45:59.223Z,100.00
2022-12-23T07:48:27.143Z,100.00
2022-12-23T07:50:54.398Z,100.00
2022-12-23T07:53:21.435Z,100.00
2022-12-23T07:55:54.596Z,100.00
2022-12-23T07:58:23.665Z,100.00
2022-12-23T08:00:50.569Z,100.00
2022-12-23T08:03:17.588Z,100.00
2022-12-23T08:05:44.584Z,100.00
2022-12-23T08:08:11.333Z,100.00
2022-12-23T08:10:41.488Z,100.00
2022-12-23T08:13:11.697Z,100.00
2022-12-23T08:15:38.999Z,100.00
2022-12-23T08:18:07.206Z,100.00
2022-12-23T08:20:34.191Z,99.84
2022-12-23T08:23:00.951Z,99.81
2022-12-23T08:25:27.846Z,100.00
2022-12-23T08:27:54.747Z,99.94
2022-12-23T08:30:21.765Z,100.00
2022-12-23T08:32:48.879Z,99.77
2022-12-23T08:35:17.204Z,100.00
2022-12-23T08:37:44.116Z,100.00
2022-12-23T08:40:12.206Z,100.00
2022-12-23T08:42:39.356Z,100.00
2022-12-23T08:45:06.522Z,100.00
2022-12-23T08:47:33.409Z,100.00
2022-12-23T08:50:00.224Z,100.00
2022-12-23T08:52:27.980Z,100.00
2022-12-23T08:54:54.798Z,100.00
2022-12-23T08:57:23.307Z,100.00
2022-12-23T08:59:51.877Z,99.92
2022-12-23T09:02:18.665Z,100.00
2022-12-23T09:04:45.705Z,100.00
2022-12-23T09:07:12.515Z,100.00
2022-12-23T09:09:40.855Z,100.00
2022-12-23T09:12:07.970Z,100.00
2022-12-23T09:14:36.927Z,100.00
2022-12-23T09:17:03.941Z,100.00
2022-12-23T09:19:31.121Z,100.00
2022-12-23T09:21:58.013Z,100.00
2022-12-23T09:24:24.917Z,100.00
2022-12-23T09:26:51.832Z,100.00
2022-12-23T09:29:18.676Z,100.00
2022-12-23T09:31:45.575Z,100.00
2022-12-23T09:34:14.132Z,100.00
2022-12-23T09:36:40.952Z,100.00
2022-12-23T09:39:07.675Z,100.00
2022-12-23T09:41:42.953Z,100.00
2022-12-23T09:44:35.424Z,100.00
2022-12-23T09:47:09.756Z,100.00
2022-12-23T09:49:44.434Z,100.00
2022-12-23T09:52:16.715Z,100.00
2022-12-23T09:54:48.493Z,100.00
2022-12-23T09:57:42.169Z,100.00
2022-12-23T10:00:15.325Z,100.00
2022-12-23T10:03:14.681Z,100.00
2022-12-23T10:05:53.840Z,100.00
2022-12-23T10:08:40.018Z,100.00
2022-12-23T10:11:40.055Z,100.00
2022-12-23T10:14:25.239Z,100.00
2022-12-23T10:17:07.364Z,100.00
2022-12-23T10:19:42.485Z,100.00
2022-12-23T10:22:25.457Z,100.00
2022-12-23T10:24:55.642Z,100.00
2022-12-23T10:27:34.890Z,100.00
2022-12-23T10:33:24.473Z,100.00
2022-12-23T10:36:12.552Z,100.00
2022-12-23T10:38:45.133Z,100.00
2022-12-23T10:41:25.069Z,100.00
2022-12-23T10:44:29.320Z,100.00
2022-12-23T10:47:14.684Z,100.00
2022-12-23T10:50:01.740Z,100.00
2022-12-23T10:52:33.094Z,100.00
2022-12-23T10:54:59.786Z,100.00
2022-12-23T10:57:26.597Z,100.00
2022-12-23T10:59:53.633Z,100.00
2022-12-23T11:02:40.686Z,100.00
2022-12-23T11:05:17.735Z,100.00
2022-12-23T11:07:46.771Z,100.00
2022-12-23T11:10:18.456Z,100.00
2022-12-23T11:12:52.183Z,100.00
2022-12-23T11:15:27.436Z,100.00
2022-12-23T11:18:21.403Z,100.00
2022-12-23T11:21:05.804Z,100.00
2022-12-23T11:23:36.687Z,100.00
2022-12-23T11:26:08.010Z,100.00
2022-12-23T11:28:46.943Z,100.00
2022-12-23T11:31:16.383Z,100.00
2022-12-23T11:33:48.144Z,100.00
2022-12-23T11:36:24.053Z,100.00
2022-12-23T11:39:09.215Z,100.00
2022-12-23T11:41:45.419Z,100.00
2022-12-23T11:44:18.940Z,100.00
2022-12-23T11:46:46.937Z,100.00
2022-12-23T11:49:28.166Z,100.00
2022-12-23T11:52:17.281Z,100.00
2022-12-23T11:54:54.598Z,100.00
2022-12-23T11:57:44.289Z,100.00
2022-12-23T12:00:21.591Z,100.00
2022-12-23T12:02:54.931Z,100.00
2022-12-23T12:05:46.785Z,100.00
2022-12-23T12:08:21.533Z,100.00
2022-12-23T12:10:52.669Z,100.00
2022-12-23T12:13:27.944Z,100.00
2022-12-23T12:16:22.616Z,100.00
2022-12-23T12:18:55.466Z,100.00
2022-12-23T12:21:28.460Z,100.00
2022-12-23T12:24:20.240Z,100.00
2022-12-23T12:26:52.619Z,100.00
2022-12-23T12:29:45.610Z,100.00
2022-12-23T12:32:22.075Z,100.00
2022-12-23T12:35:13.173Z,100.00
2022-12-23T12:37:53.736Z,100.00
2022-12-23T12:40:25.043Z,100.00
2022-12-23T12:43:23.549Z,100.00
2022-12-23T12:46:03.625Z,100.00
2022-12-23T12:48:51.668Z,100.00
2022-12-23T12:51:38.312Z,100.00
2022-12-23T12:54:14.440Z,100.00
2022-12-23T12:56:49.478Z,100.00
2022-12-23T12:59:28.131Z,100.00
2022-12-23T13:02:20.118Z,100.00
2022-12-23T13:05:06.321Z,100.00
2022-12-23T13:08:30.720Z,100.00
2022-12-23T13:11:28.564Z,100.00
2022-12-23T13:14:07.936Z,100.00
2022-12-23T13:16:37.472Z,100.00
2022-12-23T13:19:04.078Z,100.00
2022-12-23T13:21:47.248Z,100.00
2022-12-23T13:24:57.670Z,100.00
2022-12-23T13:27:34.265Z,100.00
2022-12-23T13:30:14.318Z,100.00
2022-12-23T13:33:08.592Z,100.00
2022-12-23T13:36:08.734Z,100.00
2022-12-23T13:39:13.081Z,100.00
2022-12-23T13:41:46.797Z,100.00
2022-12-23T13:44:15.312Z,100.00
2022-12-23T13:47:00.883Z,100.00
2022-12-23T13:49:58.693Z,100.00
2022-12-23T13:52:39.052Z,100.00
2022-12-23T13:55:47.133Z,100.00
2022-12-23T13:58:18.772Z,100.00
2022-12-23T14:00:45.834Z,100.00
2022-12-23T14:03:25.152Z,100.00
2022-12-23T14:05:53.965Z,100.00
2022-12-23T14:08:33.249Z,100.00
2022-12-23T14:11:20.151Z,100.00
2022-12-23T14:14:04.040Z,100.00
2022-12-23T14:16:55.850Z,100.00
2022-12-23T14:23:23.030Z,100.00
2022-12-23T14:26:20.812Z,100.00
2022-12-23T14:29:26.981Z,100.00
2022-12-23T14:31:58.603Z,100.00
2022-12-23T14:34:30.362Z,100.00
2022-12-23T14:37:26.096Z,100.00
2022-12-23T14:39:53.488Z,100.00
2022-12-23T14:43:27.934Z,100.00
2022-12-23T14:45:54.761Z,100.00
2022-12-23T14:48:33.587Z,100.00
2022-12-23T14:51:09.607Z,100.00
2022-12-23T14:53:57.128Z,100.00
2022-12-23T14:56:23.822Z,100.00
2022-12-23T14:58:59.750Z,100.00
2022-12-23T15:01:49.766Z,100.00
2022-12-23T15:04:22.113Z,100.00
2022-12-23T15:06:53.682Z,100.00
2022-12-23T15:09:30.281Z,100.00
2022-12-23T15:12:00.508Z,100.00
2022-12-23T15:14:34.464Z,100.00
2022-12-23T15:17:26.014Z,100.00
2022-12-23T15:19:54.361Z,100.00
2022-12-23T15:22:26.823Z,100.00
2022-12-23T15:24:58.812Z,100.00
2022-12-23T15:27:29.609Z,100.00
2022-12-23T15:29:57.961Z,100.00
2022-12-23T15:32:26.767Z,100.00
2022-12-23T15:35:01.114Z,100.00
2022-12-23T15:37:32.166Z,100.00
2022-12-23T15:40:09.656Z,100.00
2022-12-23T15:42:38.722Z,100.00
2022-12-23T15:45:41.076Z,100.00
2022-12-23T15:48:25.159Z,100.00
2022-12-23T15:50:54.883Z,100.00
2022-12-23T15:53:21.779Z,100.00
2022-12-23T15:55:49.825Z,100.00
2022-12-23T15:58:20.009Z,100.00
2022-12-23T16:00:57.572Z,100.00
2022-12-23T16:03:29.905Z,100.00
2022-12-23T16:06:26.367Z,100.00
2022-12-23T16:08:59.222Z,100.00
2022-12-23T16:11:57.373Z,100.00
2022-12-23T16:14:35.804Z,100.00
2022-12-23T16:17:14.589Z,100.00
2022-12-23T16:19:52.294Z,100.00
2022-12-23T16:22:27.399Z,100.00
2022-12-23T16:25:12.046Z,100.00
2022-12-23T16:27:46.299Z,100.00
2022-12-23T16:30:22.061Z,100.00
2022-12-23T16:32:55.208Z,100.00
2022-12-23T16:35:37.072Z,100.00
2022-12-23T16:38:13.273Z,100.00
2022-12-23T16:40:41.041Z,100.00
2022-12-23T16:43:08.267Z,100.00
2022-12-23T16:45:36.754Z,100.00
2022-12-23T16:48:11.538Z,100.00
2022-12-23T16:50:38.645Z,100.00
2022-12-23T16:53:05.450Z,100.00
2022-12-23T16:55:32.112Z,100.00
2022-12-23T16:57:58.901Z,100.00
2022-12-23T17:00:26.037Z,100.00
2022-12-23T17:02:52.827Z,100.00
2022-12-23T17:05:22.371Z,100.00
2022-12-23T17:07:49.854Z,100.00
2022-12-23T17:10:19.629Z,100.00
2022-12-23T17:12:47.563Z,100.00
2022-12-23T17:17:52.134Z,100.00
2022-12-23T17:20:42.157Z,100.00
2022-12-23T17:23:26.009Z,100.00
2022-12-23T17:25:53.419Z,100.00
2022-12-23T17:28:28.091Z,100.00
2022-12-23T17:30:56.331Z,100.00
2022-12-23T17:33:27.267Z,100.00
2022-12-23T17:35:55.845Z,100.00
2022-12-23T17:38:23.081Z,100.00
2022-12-23T17:40:50.966Z,100.00
2022-12-23T17:43:20.901Z,100.00
2022-12-23T17:49:04.690Z,100.00
2022-12-23T17:51:31.741Z,100.00
2022-12-23T17:53:59.357Z,100.00
2022-12-23T17:56:28.938Z,100.00
2022-12-23T17:58:55.779Z,100.00
2022-12-23T18:01:27.880Z,100.00
2022-12-23T18:03:55.844Z,100.00
2022-12-23T18:06:23.917Z,100.00
2022-12-23T18:08:51.017Z,100.00
2022-12-23T18:11:28.141Z,100.00
2022-12-23T18:13:55.234Z,100.00
2022-12-23T18:16:22.321Z,100.00
2022-12-23T18:18:49.221Z,100.00
2022-12-23T18:21:28.120Z,100.00
2022-12-23T18:29:18.893Z,100.00
2022-12-23T18:31:51.575Z,100.00
2022-12-23T18:34:19.825Z,100.00
2022-12-23T18:36:48.516Z,100.00
2022-12-23T18:39:15.366Z,100.00
2022-12-23T18:41:42.104Z,100.00
2022-12-23T18:44:17.626Z,100.00
2022-12-23T18:46:44.376Z,100.00
2022-12-23T18:49:34.728Z,100.00
2022-12-23T18:51:59.814Z,100.00
2022-12-23T18:54:26.606Z,100.00
2022-12-23T18:56:53.338Z,100.00
2022-12-23T18:59:29.620Z,100.00
2022-12-23T19:01:57.182Z,100.00
2022-12-23T19:04:24.159Z,100.00
2022-12-23T19:06:51.132Z,100.00
2022-12-23T19:09:21.388Z,100.00
2022-12-23T19:12:06.194Z,100.00
2022-12-23T19:14:38.996Z,100.00
2022-12-23T19:17:10.627Z,100.00
2022-12-23T19:19:37.524Z,100.00
2022-12-23T19:22:04.344Z,100.00
2022-12-23T19:24:31.489Z,100.00
2022-12-23T19:26:58.697Z,100.00
2022-12-23T19:29:25.626Z,100.00
2022-12-23T19:31:52.679Z,100.00
2022-12-23T19:34:19.557Z,100.00
2022-12-23T19:37:13.023Z,100.00
2022-12-23T19:39:41.075Z,100.00
2022-12-23T19:42:09.031Z,100.00
2022-12-23T19:44:36.316Z,100.00
2022-12-23T19:47:04.152Z,100.00
2022-12-23T19:49:31.582Z,100.00
2022-12-23T19:51:58.676Z,100.00
2022-12-23T19:54:25.850Z,100.00
2022-12-23T19:56:53.267Z,100.00
2022-12-23T19:59:24.453Z,100.00
2022-12-23T20:01:51.502Z,100.00
2022-12-23T20:04:18.932Z,100.00
2022-12-23T20:10:24.689Z,100.00
2022-12-23T20:12:51.812Z,100.00
2022-12-23T20:15:18.761Z,100.00
2022-12-23T20:17:45.752Z,100.00
2022-12-23T20:20:12.903Z,100.00
2022-12-23T20:22:39.937Z,100.00
2022-12-23T20:25:07.223Z,100.00
2022-12-23T20:27:34.006Z,100.00
2022-12-23T20:30:00.652Z,100.00
2022-12-23T20:32:27.298Z,100.00
2022-12-23T20:34:53.992Z,100.00
2022-12-23T20:37:20.663Z,100.00
2022-12-23T20:39:47.288Z,100.00
2022-12-23T20:42:13.999Z,100.00
2022-12-23T20:44:41.815Z,100.00
2022-12-23T20:47:08.580Z,100.00
2022-12-23T20:49:35.379Z,100.00
2022-12-23T20:52:03.392Z,100.00
2022-12-23T20:54:33.709Z,100.00
2022-12-23T20:57:02.118Z,100.00
2022-12-23T20:59:29.234Z,100.00
2022-12-23T21:01:58.880Z,100.00
2022-12-23T21:04:25.836Z,100.00
2022-12-23T21:06:52.581Z,100.00
2022-12-23T21:09:19.429Z,100.00
2022-12-23T21:11:48.119Z,100.00
2022-12-23T21:14:16.187Z,100.00
2022-12-23T21:16:43.739Z,100.00
2022-12-23T21:38:13.260Z,100.00
2022-12-23T21:40:39.897Z,100.00
2022-12-23T21:43:08.854Z,100.00
2022-12-23T21:45:35.852Z,100.00
2022-12-23T21:48:02.524Z,100.00
2022-12-23T21:50:29.855Z,100.00
2022-12-23T21:52:56.695Z,100.00
2022-12-23T21:55:23.312Z,100.00
2022-12-23T21:57:49.974Z,100.00
2022-12-23T22:00:16.882Z,100.00
2022-12-23T22:02:46.361Z,100.00
2022-12-23T22:05:13.061Z,100.00
2022-12-23T22:07:39.809Z,100.00
2022-12-23T22:10:07.443Z,100.00
2022-12-23T22:12:34.139Z,100.00
2022-12-23T22:15:03.839Z,100.00
2022-12-23T22:17:34.736Z,99.86
2022-12-23T22:20:01.609Z,100.00
2022-12-23T22:22:28.291Z,100.00
2022-12-23T22:24:55.001Z,99.59
2022-12-23T22:27:21.773Z,99.30
2022-12-23T22:29:48.432Z,99.08
2022-12-23T22:32:15.151Z,98.71
2022-12-23T22:34:41.898Z,97.66
2022-12-23T22:37:08.878Z,97.53
2022-12-23T22:39:35.595Z,97.31
2022-12-23T22:42:02.431Z,97.28
2022-12-23T22:44:29.185Z,96.85
2022-12-23T22:46:55.975Z,97.34
2022-12-23T22:49:22.779Z,96.10
2022-12-23T22:51:49.534Z,96.01
2022-12-23T22:54:16.324Z,95.99
2022-12-23T22:56:43.304Z,96.47
2022-12-23T22:59:20.201Z,96.39
2022-12-23T23:01:48.137Z,95.90
2022-12-23T23:04:14.794Z,95.65
2022-12-23T23:06:42.140Z,95.21
2022-12-23T23:09:17.410Z,94.94
2022-12-23T23:11:44.605Z,94.71
2022-12-23T23:14:12.424Z,95.22
2022-12-23T23:16:39.612Z,94.75
2022-12-23T23:19:06.856Z,94.92
2022-12-23T23:21:34.509Z,94.90
2022-12-23T23:24:01.365Z,94.64
2022-12-23T23:26:28.010Z,94.42
2022-12-23T23:28:56.145Z,95.12
2022-12-23T23:34:10.742Z,94.37
2022-12-23T23:36:37.646Z,94.15
2022-12-23T23:39:04.374Z,94.71
2022-12-23T23:41:31.119Z,94.70
2022-12-23T23:43:58.057Z,95.24
2022-12-23T23:46:24.825Z,96.02
2022-12-23T23:48:51.610Z,95.24
2022-12-23T23:51:18.373Z,95.49
2022-12-23T23:53:45.035Z,94.62
2022-12-23T23:56:11.793Z,95.09
2022-12-23T23:58:38.611Z,95.55
